createdAt,value
2023-04-20T00:01:10.971Z,45.00
2023-04-20T00:03:39.071Z,45.20
2023-04-20T00:06:07.891Z,41.20
2023-04-20T00:08:35.785Z,42.10
2023-04-20T00:11:03.724Z,44.00
2023-04-20T00:13:31.636Z,43.80
2023-04-20T00:15:59.628Z,40.30
2023-04-20T00:18:27.539Z,39.50
2023-04-20T00:20:55.543Z,38.40
2023-04-20T00:23:23.339Z,42.80
2023-04-20T00:25:51.784Z,42.70
2023-04-20T00:28:19.584Z,47.50
2023-04-20T00:30:47.455Z,47.30
2023-04-20T00:33:15.466Z,41.50
2023-04-20T00:35:43.289Z,47.00
2023-04-20T00:38:11.139Z,42.50
2023-04-20T00:40:39.086Z,43.80
2023-04-20T00:43:13.984Z,44.00
2023-04-20T00:45:41.802Z,42.50
2023-04-20T00:48:09.646Z,40.80
2023-04-20T00:50:38.865Z,47.90
2023-04-20T00:53:08.137Z,42.40
2023-04-20T00:55:37.303Z,43.40
2023-04-20T00:58:06.315Z,39.40
2023-04-20T01:00:34.771Z,44.60
2023-04-20T01:03:02.722Z,43.50
2023-04-20T01:05:31.053Z,43.00
2023-04-20T01:07:59.078Z,42.50
2023-04-20T01:10:26.885Z,47.40
2023-04-20T01:12:54.749Z,42.60
2023-04-20T01:15:22.618Z,43.90
2023-04-20T01:17:50.513Z,48.20
2023-04-20T01:20:20.447Z,43.90
2023-04-20T01:22:51.019Z,44.60
2023-04-20T01:25:18.978Z,47.00
2023-04-20T01:27:46.964Z,43.50
2023-04-20T01:30:15.034Z,42.40
2023-04-20T01:32:43.769Z,42.20
2023-04-20T01:35:12.095Z,41.80
2023-04-20T01:37:40.936Z,44.30
2023-04-20T01:40:10.531Z,43.30
2023-04-20T01:42:38.425Z,41.80
2023-04-20T01:45:07.065Z,40.30
2023-04-20T01:47:35.552Z,39.70
2023-04-20T01:50:03.803Z,41.90
2023-04-20T01:52:31.676Z,42.10
2023-04-20T01:54:59.525Z,36.20
2023-04-20T01:57:27.290Z,40.50
2023-04-20T01:59:55.094Z,39.80
2023-04-20T02:02:23.777Z,36.70
2023-04-20T02:04:53.385Z,40.70
2023-04-20T02:07:21.379Z,36.00
2023-04-20T02:09:49.347Z,37.40
2023-04-20T02:12:17.127Z,37.80
2023-04-20T02:14:45.060Z,39.60
2023-04-20T02:17:13.975Z,37.90
2023-04-20T02:19:41.821Z,37.00
2023-04-20T02:22:09.761Z,37.80
2023-04-20T02:24:37.557Z,36.50
2023-04-20T02:27:05.668Z,37.70
2023-04-20T02:29:33.570Z,46.30
2023-04-20T02:32:01.616Z,41.10
2023-04-20T02:34:29.377Z,38.10
2023-04-20T02:36:57.170Z,38.80
2023-04-20T02:39:25.045Z,39.20
2023-04-20T02:41:52.828Z,38.90
2023-04-20T02:44:20.676Z,38.80
2023-04-20T02:46:48.553Z,38.70
2023-04-20T02:49:16.782Z,43.50
2023-04-20T02:51:44.832Z,37.50
2023-04-20T02:54:12.715Z,41.10
2023-04-20T02:56:40.600Z,41.50
2023-04-20T02:59:08.443Z,39.90
2023-04-20T03:01:36.263Z,40.80
2023-04-20T03:04:04.783Z,41.00
2023-04-20T03:06:33.413Z,36.90
2023-04-20T03:09:01.545Z,37.80
2023-04-20T03:11:29.361Z,39.00
2023-04-20T03:13:57.125Z,37.40
2023-04-20T03:16:24.918Z,43.00
2023-04-20T03:18:52.739Z,43.50
2023-04-20T03:21:20.735Z,43.40
2023-04-20T03:23:49.280Z,44.00
2023-04-20T03:26:17.895Z,39.80
2023-04-20T03:28:45.869Z,39.40
2023-04-20T03:31:13.810Z,48.30
2023-04-20T03:33:41.643Z,40.00
2023-04-20T03:36:09.845Z,44.70
2023-04-20T03:38:37.713Z,68.30
2023-04-20T03:41:08.136Z,65.60
2023-04-20T03:43:36.148Z,60.10
2023-04-20T03:46:04.057Z,53.10
2023-04-20T03:48:33.133Z,56.40
2023-04-20T03:51:01.133Z,50.70
2023-04-20T03:53:29.234Z,56.60
2023-04-20T03:55:57.160Z,74.40
2023-04-20T03:58:25.000Z,70.70
2023-04-20T04:00:52.825Z,57.70
2023-04-20T04:03:20.776Z,56.80
2023-04-20T04:05:48.650Z,56.20
2023-04-20T04:08:16.585Z,53.30
2023-04-20T04:10:44.448Z,58.00
2023-04-20T04:13:12.219Z,52.00
2023-04-20T04:15:40.012Z,55.20
2023-04-20T04:18:07.962Z,50.10
2023-04-20T04:20:35.835Z,50.00
2023-04-20T04:23:03.775Z,56.80
2023-04-20T04:25:31.586Z,46.00
2023-04-20T04:27:59.842Z,47.50
2023-04-20T04:30:27.719Z,49.50
2023-04-20T04:32:55.823Z,50.10
2023-04-20T04:35:23.992Z,48.40
2023-04-20T04:37:52.805Z,50.30
2023-04-20T04:40:20.856Z,46.70
2023-04-20T04:42:48.712Z,49.20
2023-04-20T04:45:18.473Z,44.60
2023-04-20T04:47:46.465Z,48.60
2023-04-20T04:50:14.530Z,50.50
2023-04-20T04:52:42.437Z,48.20
2023-04-20T04:55:10.366Z,51.20
2023-04-20T04:57:38.759Z,50.10
2023-04-20T05:00:11.847Z,47.80
2023-04-20T05:02:40.152Z,46.80
2023-04-20T05:05:10.081Z,50.40
2023-04-20T05:07:38.602Z,50.90
2023-04-20T05:10:08.109Z,49.50
2023-04-20T05:12:36.238Z,48.90
2023-04-20T05:15:04.518Z,46.60
2023-04-20T05:17:32.532Z,51.90
2023-04-20T05:20:00.396Z,52.70
2023-04-20T05:22:28.247Z,49.10
2023-04-20T05:24:56.042Z,48.90
2023-04-20T05:27:23.884Z,50.30
2023-04-20T05:29:51.677Z,48.20
2023-04-20T05:32:19.590Z,52.80
2023-04-20T05:34:47.426Z,53.40
2023-04-20T05:37:16.181Z,50.00
2023-04-20T05:39:43.972Z,52.10
2023-04-20T05:42:11.848Z,51.80
2023-04-20T05:44:41.145Z,50.10
2023-04-20T05:47:09.073Z,52.60
2023-04-20T05:49:36.943Z,48.20
2023-04-20T05:52:05.063Z,46.00
2023-04-20T05:54:32.942Z,49.50
2023-04-20T05:57:00.709Z,49.90
2023-04-20T05:59:28.729Z,50.60
2023-04-20T06:01:56.585Z,46.50
2023-04-20T06:04:24.637Z,44.30
2023-04-20T06:06:52.673Z,44.60
2023-04-20T06:09:20.854Z,47.80
2023-04-20T06:11:48.683Z,46.60
2023-04-20T06:14:16.731Z,49.20
2023-04-20T06:16:44.919Z,45.60
2023-04-20T06:19:12.831Z,50.10
2023-04-20T06:21:41.303Z,46.50
2023-04-20T06:24:09.267Z,45.60
2023-04-20T06:26:37.128Z,48.20
2023-04-20T06:29:05.022Z,46.50
2023-04-20T06:31:33.061Z,50.10
2023-04-20T06:34:00.859Z,51.40
2023-04-20T06:36:28.744Z,48.20
2023-04-20T06:38:56.646Z,53.70
2023-04-20T06:41:24.356Z,44.10
2023-04-20T06:43:52.102Z,44.50
2023-04-20T06:46:20.088Z,48.30
2023-04-20T06:48:47.942Z,45.80
2023-04-20T06:51:15.870Z,44.50
2023-04-20T06:53:43.735Z,45.00
2023-04-20T06:56:12.229Z,43.90
2023-04-20T06:58:40.097Z,44.00
2023-04-20T07:01:07.925Z,45.10
2023-04-20T07:03:36.477Z,42.60
2023-04-20T07:06:07.073Z,43.50
2023-04-20T07:08:34.882Z,41.40
2023-04-20T07:11:02.668Z,45.80
2023-04-20T07:13:33.923Z,40.40
2023-04-20T07:16:02.243Z,40.10
2023-04-20T07:18:30.278Z,42.00
2023-04-20T07:20:58.198Z,43.90
2023-04-20T07:23:26.115Z,42.30
2023-04-20T07:25:54.308Z,39.20
2023-04-20T07:28:22.109Z,37.90
2023-04-20T07:30:49.931Z,33.10
2023-04-20T07:33:18.045Z,35.50
2023-04-20T07:35:45.852Z,33.00
2023-04-20T07:38:13.817Z,35.20
2023-04-20T07:40:41.576Z,30.30
2023-04-20T07:43:09.361Z,28.50
2023-04-20T07:45:41.333Z,28.70
2023-04-20T07:48:10.070Z,25.40
2023-04-20T07:50:38.497Z,26.90
2023-04-20T07:53:06.346Z,23.60
2023-04-20T07:55:34.198Z,21.60
2023-04-20T07:58:02.001Z,22.90
2023-04-20T08:00:30.049Z,27.40
2023-04-20T08:02:58.162Z,21.60
2023-04-20T08:05:26.241Z,20.70
2023-04-20T08:07:57.084Z,18.60
2023-04-20T08:10:25.595Z,19.20
2023-04-20T08:12:54.006Z,19.70
2023-04-20T08:15:22.044Z,19.90
2023-04-20T08:17:50.006Z,15.20
2023-04-20T08:20:18.290Z,17.40
2023-04-20T08:22:46.120Z,15.20
2023-04-20T08:25:13.947Z,20.90
2023-04-20T08:27:41.798Z,20.00
2023-04-20T08:30:10.624Z,15.60
2023-04-20T08:32:38.494Z,16.50
2023-04-20T08:35:07.426Z,13.50
2023-04-20T08:37:37.457Z,16.30
2023-04-20T08:40:06.211Z,14.70
2023-04-20T08:42:34.075Z,17.40
2023-04-20T08:45:02.251Z,18.50
2023-04-20T08:47:31.525Z,17.30
2023-04-20T08:50:00.232Z,16.10
2023-04-20T08:52:28.306Z,20.80
2023-04-20T08:54:57.770Z,18.20
2023-04-20T08:57:26.440Z,16.90
2023-04-20T08:59:54.556Z,16.00
2023-04-20T09:02:22.850Z,16.50
2023-04-20T09:05:05.073Z,18.40
2023-04-20T09:07:33.100Z,15.50
2023-04-20T09:10:01.356Z,14.10
2023-04-20T09:12:29.496Z,15.00
2023-04-20T09:14:57.352Z,15.40
2023-04-20T09:17:36.341Z,14.20
2023-04-20T09:20:05.444Z,14.70
2023-04-20T09:22:35.956Z,14.90
2023-04-20T09:25:17.735Z,14.80
2023-04-20T09:28:00.098Z,19.80
2023-04-20T09:30:48.959Z,17.90
2023-04-20T09:33:17.056Z,16.20
2023-04-20T09:35:45.776Z,14.50
2023-04-20T09:38:17.116Z,15.20
2023-04-20T09:40:45.216Z,15.50
2023-04-20T09:43:19.963Z,13.30
2023-04-20T09:45:49.304Z,14.70
2023-04-20T09:48:19.656Z,16.70
2023-04-20T09:50:51.043Z,13.00
2023-04-20T09:53:20.204Z,12.50
2023-04-20T09:55:50.376Z,13.40
2023-04-20T09:58:20.442Z,13.40
2023-04-20T10:00:48.809Z,14.20
2023-04-20T10:03:18.967Z,11.90
2023-04-20T10:05:47.191Z,12.10
2023-04-20T10:08:15.156Z,13.80
2023-04-20T10:10:52.360Z,12.40
2023-04-20T10:13:22.061Z,11.90
2023-04-20T10:15:50.055Z,11.10
2023-04-20T10:18:23.480Z,12.20
2023-04-20T10:20:52.678Z,12.00
2023-04-20T10:23:20.598Z,13.50
2023-04-20T10:26:00.609Z,12.20
2023-04-20T10:28:42.942Z,11.60
2023-04-20T10:31:16.794Z,11.50
2023-04-20T10:33:56.061Z,11.60
2023-04-20T10:36:27.602Z,14.10
2023-04-20T10:38:55.972Z,14.30
2023-04-20T10:41:24.600Z,13.40
2023-04-20T10:43:52.402Z,12.00
2023-04-20T10:46:23.021Z,11.20
2023-04-20T10:49:01.541Z,11.60
2023-04-20T10:51:29.953Z,12.40
2023-04-20T10:54:05.061Z,8.90
2023-04-20T10:56:44.973Z,13.30
2023-04-20T10:59:19.285Z,10.50
2023-04-20T11:01:48.744Z,12.60
2023-04-20T11:04:18.816Z,13.50
2023-04-20T11:06:50.832Z,15.90
2023-04-20T11:09:28.452Z,13.80
2023-04-20T11:12:07.419Z,12.50
2023-04-20T11:14:38.963Z,11.10
2023-04-20T11:17:06.971Z,12.00
2023-04-20T11:19:37.197Z,15.10
2023-04-20T11:22:06.415Z,11.90
2023-04-20T11:24:35.818Z,11.80
2023-04-20T11:27:04.982Z,13.10
2023-04-20T11:29:35.505Z,12.50
2023-04-20T11:32:09.187Z,12.00
2023-04-20T11:34:38.944Z,10.00
2023-04-20T11:37:13.137Z,13.20
2023-04-20T11:39:41.789Z,10.60
2023-04-20T11:42:09.856Z,12.60
2023-04-20T11:44:40.036Z,13.00
2023-04-20T11:47:07.965Z,11.90
2023-04-20T11:49:35.703Z,15.00
2023-04-20T11:52:03.660Z,14.90
2023-04-20T11:54:34.047Z,11.10
2023-04-20T11:57:02.598Z,10.30
2023-04-20T11:59:30.909Z,10.60
2023-04-20T12:02:01.311Z,12.20
2023-04-20T12:04:30.424Z,9.10
2023-04-20T12:07:02.810Z,9.30
2023-04-20T12:09:30.766Z,11.50
2023-04-20T12:11:59.151Z,14.60
2023-04-20T12:14:27.238Z,18.60
2023-04-20T12:16:56.741Z,13.10
2023-04-20T12:19:25.971Z,12.40
2023-04-20T12:21:53.887Z,11.90
2023-04-20T12:24:22.399Z,11.10
2023-04-20T12:26:50.318Z,11.80
2023-04-20T12:29:18.560Z,11.50
2023-04-20T12:31:46.780Z,12.10
2023-04-20T12:34:14.660Z,12.60
2023-04-20T12:36:42.366Z,15.20
2023-04-20T12:39:11.858Z,15.40
2023-04-20T12:41:41.441Z,10.10
2023-04-20T12:44:11.444Z,12.00
2023-04-20T12:46:39.647Z,10.50
2023-04-20T12:49:07.612Z,15.90
2023-04-20T12:51:35.402Z,14.00
2023-04-20T12:54:03.517Z,13.30
2023-04-20T12:56:31.326Z,9.80
2023-04-20T12:58:59.345Z,8.90
2023-04-20T13:01:27.261Z,12.10
2023-04-20T13:03:56.264Z,15.30
2023-04-20T13:06:24.300Z,15.40
2023-04-20T13:08:52.206Z,9.70
2023-04-20T13:11:20.159Z,8.70
2023-04-20T13:13:47.881Z,13.80
2023-04-20T13:16:15.936Z,7.60
2023-04-20T13:18:43.972Z,12.80
2023-04-20T13:21:11.887Z,13.80
2023-04-20T13:23:40.172Z,12.60
2023-04-20T13:26:08.766Z,11.30
2023-04-20T13:28:37.793Z,10.70
2023-04-20T13:31:05.998Z,11.60
2023-04-20T13:33:34.394Z,11.50
2023-04-20T13:36:02.669Z,12.80
2023-04-20T13:38:30.650Z,17.40
2023-04-20T13:40:58.500Z,13.30
2023-04-20T13:43:26.482Z,12.60
2023-04-20T13:45:54.497Z,13.90
2023-04-20T13:48:22.551Z,13.40
2023-04-20T13:50:51.240Z,12.60
2023-04-20T13:53:19.093Z,9.50
2023-04-20T13:55:46.849Z,10.10
2023-04-20T13:58:14.776Z,14.50
2023-04-20T14:00:42.627Z,14.70
2023-04-20T14:03:10.800Z,10.20
2023-04-20T14:05:39.067Z,10.90
2023-04-20T14:08:07.434Z,14.30
2023-04-20T14:10:35.579Z,13.40
2023-04-20T14:13:03.963Z,9.60
2023-04-20T14:15:32.214Z,13.20
2023-04-20T14:18:00.597Z,15.60
2023-04-20T14:20:28.440Z,13.30
2023-04-20T14:22:56.393Z,19.10
2023-04-20T14:25:24.262Z,11.30
2023-04-20T14:27:52.231Z,15.00
2023-04-20T14:30:20.134Z,12.50
2023-04-20T14:32:59.016Z,11.60
2023-04-20T14:35:28.002Z,8.20
2023-04-20T14:37:55.962Z,15.50
2023-04-20T14:40:23.783Z,11.60
2023-04-20T14:42:51.700Z,12.40
2023-04-20T14:45:19.748Z,9.70
2023-04-20T14:47:47.576Z,11.80
2023-04-20T14:50:15.516Z,13.60
2023-04-20T14:52:43.244Z,9.70
2023-04-20T14:55:11.116Z,9.70
2023-04-20T14:57:38.914Z,10.50
2023-04-20T15:00:07.787Z,9.90
2023-04-20T15:02:35.839Z,11.80
2023-04-20T15:05:07.036Z,16.70
2023-04-20T15:07:39.952Z,14.80
2023-04-20T15:10:09.296Z,28.10
2023-04-20T15:12:37.093Z,16.60
2023-04-20T15:15:05.481Z,27.10
2023-04-20T15:17:33.278Z,19.30
2023-04-20T15:20:01.117Z,14.50
2023-04-20T15:22:28.971Z,14.40
2023-04-20T15:24:56.925Z,19.00
2023-04-20T15:27:24.770Z,13.40
2023-04-20T15:29:52.670Z,13.20
2023-04-20T15:32:20.549Z,12.00
2023-04-20T15:34:48.326Z,18.30
2023-04-20T15:37:16.162Z,16.40
2023-04-20T15:39:44.962Z,14.10
2023-04-20T15:42:13.003Z,16.50
2023-04-20T15:44:41.571Z,17.10
2023-04-20T15:47:09.467Z,15.80
2023-04-20T15:49:40.678Z,13.10
2023-04-20T15:52:08.698Z,14.10
2023-04-20T15:54:37.694Z,17.90
2023-04-20T15:57:05.527Z,20.30
2023-04-20T15:59:33.474Z,18.90
2023-04-20T16:02:01.425Z,14.80
2023-04-20T16:04:29.339Z,19.30
2023-04-20T16:06:57.203Z,17.10
2023-04-20T16:09:25.226Z,17.60
2023-04-20T16:11:53.266Z,15.60
2023-04-20T16:14:21.384Z,14.90
2023-04-20T16:16:49.328Z,11.90
2023-04-20T16:19:17.148Z,15.80
2023-04-20T16:21:44.950Z,16.70
2023-04-20T16:24:12.859Z,12.60
2023-04-20T16:26:41.415Z,16.90
2023-04-20T16:29:09.957Z,23.20
2023-04-20T16:31:38.089Z,13.60
2023-04-20T16:34:06.535Z,21.30
2023-04-20T16:36:35.299Z,16.70
2023-04-20T16:39:05.953Z,12.30
2023-04-20T16:41:33.943Z,16.20
2023-04-20T16:44:01.859Z,14.40
2023-04-20T16:46:29.877Z,14.10
2023-04-20T16:48:58.091Z,12.70
2023-04-20T16:51:26.131Z,12.30
2023-04-20T16:53:55.335Z,12.00
2023-04-20T16:56:23.311Z,13.10
2023-04-20T16:58:51.144Z,16.10
2023-04-20T17:01:19.207Z,14.40
2023-04-20T17:03:47.898Z,17.60
2023-04-20T17:06:15.891Z,15.80
2023-04-20T17:08:43.734Z,25.00
2023-04-20T17:11:11.642Z,44.80
2023-04-20T17:13:39.571Z,90.20
2023-04-20T17:16:07.436Z,59.90
2023-04-20T17:18:35.437Z,53.30
2023-04-20T17:21:04.034Z,41.60
2023-04-20T17:23:34.288Z,43.90
2023-04-20T17:26:03.071Z,37.30
2023-04-20T17:28:30.948Z,41.60
2023-04-20T17:31:02.251Z,38.00
2023-04-20T17:33:30.661Z,32.50
2023-04-20T17:36:00.124Z,37.60
2023-04-20T17:38:31.069Z,33.70
2023-04-20T17:40:59.224Z,34.20
2023-04-20T17:43:27.351Z,43.70
2023-04-20T17:45:55.361Z,43.80
2023-04-20T17:48:23.165Z,46.10
2023-04-20T17:50:54.528Z,66.70
2023-04-20T17:53:23.361Z,75.60
2023-04-20T17:55:54.349Z,112.00
2023-04-20T17:58:22.265Z,131.50
2023-04-20T18:00:51.941Z,147.40
2023-04-20T18:03:21.420Z,146.60
2023-04-20T18:05:49.338Z,132.50
2023-04-20T18:08:17.801Z,105.90
2023-04-20T18:10:45.974Z,100.90
2023-04-20T18:13:13.905Z,77.10
2023-04-20T18:15:41.943Z,64.30
2023-04-20T18:18:10.483Z,61.40
2023-04-20T18:20:40.627Z,74.50
2023-04-20T18:23:08.577Z,84.50
2023-04-20T18:25:36.710Z,86.90
2023-04-20T18:28:04.635Z,80.00
2023-04-20T18:30:35.192Z,83.90
2023-04-20T18:33:03.138Z,96.30
2023-04-20T18:35:31.125Z,95.00
2023-04-20T18:38:02.638Z,100.20
2023-04-20T18:40:30.583Z,101.60
2023-04-20T18:42:58.387Z,96.00
2023-04-20T18:45:26.381Z,95.90
2023-04-20T18:47:54.264Z,100.80
2023-04-20T18:50:22.278Z,113.00
2023-04-20T18:52:50.299Z,137.00
2023-04-20T18:55:18.185Z,167.40
2023-04-20T18:57:45.976Z,188.00
2023-04-20T19:00:14.434Z,182.70
2023-04-20T19:02:45.969Z,179.80
2023-04-20T19:05:14.717Z,170.70
2023-04-20T19:07:42.587Z,155.90
2023-04-20T19:10:10.806Z,186.80
2023-04-20T19:12:38.701Z,175.30
2023-04-20T19:15:08.659Z,146.50
2023-04-20T19:17:36.680Z,151.40
2023-04-20T19:20:05.498Z,120.10
2023-04-20T19:22:33.435Z,85.70
2023-04-20T19:25:01.325Z,82.60
2023-04-20T19:27:30.496Z,64.50
2023-04-20T19:29:58.357Z,72.60
2023-04-20T19:32:26.567Z,116.80
2023-04-20T19:34:57.368Z,176.70
2023-04-20T19:37:25.681Z,256.30
2023-04-20T19:39:53.863Z,372.00
2023-04-20T19:42:22.859Z,219.30
2023-04-20T19:44:53.511Z,140.80
2023-04-20T19:47:23.846Z,111.50
2023-04-20T19:49:52.443Z,103.60
2023-04-20T19:52:20.573Z,109.30
2023-04-20T19:54:52.214Z,104.10
2023-04-20T19:57:20.238Z,117.40
2023-04-20T19:59:48.259Z,119.70
2023-04-20T20:02:18.437Z,127.50
2023-04-20T20:04:46.290Z,121.70
2023-04-20T20:07:14.159Z,119.80
2023-04-20T20:09:44.085Z,123.50
2023-04-20T20:12:12.514Z,138.20
2023-04-20T20:14:40.665Z,140.90
2023-04-20T20:17:08.470Z,157.00
2023-04-20T20:19:36.409Z,147.10
2023-04-20T20:22:04.166Z,131.90
2023-04-20T20:24:31.927Z,129.60
2023-04-20T20:26:59.685Z,121.40
2023-04-20T20:29:27.470Z,120.90
2023-04-20T20:31:55.356Z,115.50
2023-04-20T20:34:23.098Z,108.90
2023-04-20T20:36:51.350Z,103.20
2023-04-20T20:39:19.754Z,88.90
2023-04-20T20:41:51.182Z,81.30
2023-04-20T20:44:20.591Z,80.70
2023-04-20T20:46:48.851Z,75.40
2023-04-20T20:49:17.144Z,77.20
2023-04-20T20:51:45.003Z,73.30
2023-04-20T20:54:12.873Z,80.70
2023-04-20T20:56:40.786Z,63.10
2023-04-20T20:59:11.363Z,61.10
2023-04-20T21:01:42.282Z,64.50
2023-04-20T21:04:10.471Z,57.40
2023-04-20T21:06:38.444Z,53.40
2023-04-20T21:09:06.333Z,58.30
2023-04-20T21:11:34.150Z,51.50
2023-04-20T21:14:03.510Z,51.50
2023-04-20T21:16:31.387Z,65.00
2023-04-20T21:18:59.286Z,56.60
2023-04-20T21:21:27.552Z,60.20
2023-04-20T21:23:55.666Z,54.80
2023-04-20T21:26:23.585Z,56.20
2023-04-20T21:28:51.505Z,42.50
2023-04-20T21:31:19.594Z,48.40
2023-04-20T21:33:47.515Z,44.40
2023-04-20T21:36:15.440Z,43.70
2023-04-20T21:38:45.568Z,43.60
2023-04-20T21:41:13.364Z,45.60
2023-04-20T21:43:43.342Z,36.80
2023-04-20T21:46:15.869Z,40.40
2023-04-20T21:48:43.807Z,30.50
2023-04-20T21:51:18.269Z,34.00
2023-04-20T21:53:46.100Z,33.00
2023-04-20T21:56:14.971Z,33.40
2023-04-20T21:58:42.945Z,36.80
2023-04-20T22:01:11.179Z,34.50
2023-04-20T22:03:39.296Z,33.10
2023-04-20T22:06:07.499Z,24.70
2023-04-20T22:08:39.618Z,28.70
2023-04-20T22:11:07.975Z,28.70
2023-04-20T22:13:36.650Z,29.80
2023-04-20T22:16:05.032Z,26.30
2023-04-20T22:18:32.810Z,25.00
2023-04-20T22:21:00.636Z,24.40
2023-04-20T22:23:28.543Z,28.60
2023-04-20T22:25:56.426Z,29.10
2023-04-20T22:28:24.357Z,25.40
2023-04-20T22:30:52.334Z,27.60
2023-04-20T22:33:20.488Z,24.50
2023-04-20T22:35:48.377Z,24.80
2023-04-20T22:38:16.483Z,23.00
2023-04-20T22:40:44.347Z,31.20
2023-04-20T22:43:12.287Z,26.30
2023-04-20T22:45:40.689Z,28.70
2023-04-20T22:48:09.278Z,22.80
2023-04-20T22:50:37.273Z,23.80
2023-04-20T22:53:05.182Z,25.50
2023-04-20T22:55:33.028Z,23.30
2023-04-20T22:58:00.863Z,24.10
2023-04-20T23:00:28.748Z,23.50
2023-04-20T23:02:56.776Z,24.40
2023-04-20T23:05:25.115Z,25.40
2023-04-20T23:07:56.310Z,28.50
2023-04-20T23:10:28.635Z,24.90
2023-04-20T23:12:56.704Z,25.40
2023-04-20T23:15:24.641Z,24.50
2023-04-20T23:17:52.880Z,27.00
2023-04-20T23:20:20.885Z,27.40
2023-04-20T23:22:48.668Z,28.60
2023-04-20T23:25:16.560Z,32.20
2023-04-20T23:27:44.367Z,26.40
2023-04-20T23:30:12.887Z,27.30
2023-04-20T23:32:42.348Z,23.90
2023-04-20T23:35:11.629Z,27.80
2023-04-20T23:37:39.400Z,29.30
2023-04-20T23:40:10.075Z,28.90
2023-04-20T23:42:37.902Z,28.60
2023-04-20T23:45:06.682Z,27.00
2023-04-20T23:47:34.570Z,25.20
2023-04-20T23:50:02.354Z,26.00
2023-04-20T23:52:30.852Z,27.80
2023-04-20T23:54:58.725Z,27.90
2023-04-20T23:57:26.601Z,27.30
2023-04-20T23:59:54.736Z,30.00
